sensor_id;sensor_type;location;lat;lon;timestamp;temperature;humidity
50989;DHT22;37008;52.210;21.112;2024-02-16T00:01:58;6.80;99.90
50989;DHT22;37008;52.210;21.112;2024-02-16T00:04:23;6.70;99.90
50989;DHT22;37008;52.210;21.112;2024-02-16T00:06:49;6.80;99.90
50989;DHT22;37008;52.210;21.112;2024-02-16T00:09:15;6.70;99.90
50989;DHT22;37008;52.210;21.112;2024-02-16T00:11:40;6.70;99.90
50989;DHT22;37008;52.210;21.112;2024-02-16T00:14:06;6.70;99.90
50989;DHT22;37008;52.210;21.112;2024-02-16T00:16:32;6.70;99.90
50989;DHT22;37008;52.210;21.112;2024-02-16T00:18:58;6.70;99.90
50989;DHT22;37008;52.210;21.112;2024-02-16T00:21:23;6.70;99.90
50989;DHT22;37008;52.210;21.112;2024-02-16T00:23:49;6.70;99.90
50989;DHT22;37008;52.210;21.112;2024-02-16T00:26:15;6.70;99.90
50989;DHT22;37008;52.210;21.112;2024-02-16T00:28:41;6.70;99.90
50989;DHT22;37008;52.210;21.112;2024-02-16T00:31:07;6.70;99.90
50989;DHT22;37008;52.210;21.112;2024-02-16T00:33:33;6.70;99.90
50989;DHT22;37008;52.210;21.112;2024-02-16T00:35:59;6.70;99.90
50989;DHT22;37008;52.210;21.112;2024-02-16T00:38:24;6.60;99.90
50989;DHT22;37008;52.210;21.112;2024-02-16T00:40:50;6.60;99.90
50989;DHT22;37008;52.210;21.112;2024-02-16T00:43:16;6.60;99.90
50989;DHT22;37008;52.210;21.112;2024-02-16T00:45:43;6.70;99.90
50989;DHT22;37008;52.210;21.112;2024-02-16T00:48:10;6.60;99.90
50989;DHT22;37008;52.210;21.112;2024-02-16T00:50:36;6.60;99.90
50989;DHT22;37008;52.210;21.112;2024-02-16T00:53:02;6.60;99.90
50989;DHT22;37008;52.210;21.112;2024-02-16T00:55:28;6.60;99.90
50989;DHT22;37008;52.210;21.112;2024-02-16T00:57:54;6.70;99.90
50989;DHT22;37008;52.210;21.112;2024-02-16T01:00:19;6.60;99.90
50989;DHT22;37008;52.210;21.112;2024-02-16T01:02:45;6.60;99.90
50989;DHT22;37008;52.210;21.112;2024-02-16T01:05:11;6.60;99.90
50989;DHT22;37008;52.210;21.112;2024-02-16T01:07:37;6.60;99.90
50989;DHT22;37008;52.210;21.112;2024-02-16T01:10:04;6.60;99.90
50989;DHT22;37008;52.210;21.112;2024-02-16T01:12:30;6.50;99.90
50989;DHT22;37008;52.210;21.112;2024-02-16T01:14:56;6.50;99.90
50989;DHT22;37008;52.210;21.112;2024-02-16T01:17:22;6.40;99.90
50989;DHT22;37008;52.210;21.112;2024-02-16T01:19:48;6.30;99.90
50989;DHT22;37008;52.210;21.112;2024-02-16T01:22:14;6.20;99.90
50989;DHT22;37008;52.210;21.112;2024-02-16T01:24:40;6.20;99.90
50989;DHT22;37008;52.210;21.112;2024-02-16T01:27:05;6.10;99.90
50989;DHT22;37008;52.210;21.112;2024-02-16T01:29:31;6.00;99.90
50989;DHT22;37008;52.210;21.112;2024-02-16T01:31:58;5.90;99.90
50989;DHT22;37008;52.210;21.112;2024-02-16T01:34:24;5.90;99.90
50989;DHT22;37008;52.210;21.112;2024-02-16T01:36:49;5.80;99.90
50989;DHT22;37008;52.210;21.112;2024-02-16T01:39:15;5.70;99.90
50989;DHT22;37008;52.210;21.112;2024-02-16T01:41:41;5.70;99.90
50989;DHT22;37008;52.210;21.112;2024-02-16T01:44:06;5.60;99.90
50989;DHT22;37008;52.210;21.112;2024-02-16T01:46:33;5.60;99.90
50989;DHT22;37008;52.210;21.112;2024-02-16T01:49:00;5.50;99.90
50989;DHT22;37008;52.210;21.112;2024-02-16T01:51:25;5.40;99.90
50989;DHT22;37008;52.210;21.112;2024-02-16T01:53:52;5.40;99.90
50989;DHT22;37008;52.210;21.112;2024-02-16T01:56:20;5.30;99.90
50989;DHT22;37008;52.210;21.112;2024-02-16T01:58:47;5.30;99.90
50989;DHT22;37008;52.210;21.112;2024-02-16T02:01:13;5.20;99.90
50989;DHT22;37008;52.210;21.112;2024-02-16T02:03:39;5.10;99.90
50989;DHT22;37008;52.210;21.112;2024-02-16T02:06:04;5.10;99.90
50989;DHT22;37008;52.210;21.112;2024-02-16T02:08:30;5.10;99.90
50989;DHT22;37008;52.210;21.112;2024-02-16T02:10:56;5.00;99.90
50989;DHT22;37008;52.210;21.112;2024-02-16T02:13:22;5.10;99.90
50989;DHT22;37008;52.210;21.112;2024-02-16T02:15:48;5.00;99.90
50989;DHT22;37008;52.210;21.112;2024-02-16T02:18:13;5.00;99.90
50989;DHT22;37008;52.210;21.112;2024-02-16T02:20:39;5.00;99.90
50989;DHT22;37008;52.210;21.112;2024-02-16T02:23:05;4.90;99.90
50989;DHT22;37008;52.210;21.112;2024-02-16T02:25:31;4.90;99.90
50989;DHT22;37008;52.210;21.112;2024-02-16T02:27:56;4.90;99.90
50989;DHT22;37008;52.210;21.112;2024-02-16T02:30:22;4.90;99.90
50989;DHT22;37008;52.210;21.112;2024-02-16T02:32:50;4.90;99.90
50989;DHT22;37008;52.210;21.112;2024-02-16T02:35:16;4.80;99.90
50989;DHT22;37008;52.210;21.112;2024-02-16T02:37:43;4.70;99.90
50989;DHT22;37008;52.210;21.112;2024-02-16T02:40:09;4.60;99.90
50989;DHT22;37008;52.210;21.112;2024-02-16T02:42:35;4.70;99.90
50989;DHT22;37008;52.210;21.112;2024-02-16T02:45:02;4.60;99.90
50989;DHT22;37008;52.210;21.112;2024-02-16T02:47:27;4.60;99.90
50989;DHT22;37008;52.210;21.112;2024-02-16T02:49:53;4.60;99.90
50989;DHT22;37008;52.210;21.112;2024-02-16T02:52:20;4.50;99.90
50989;DHT22;37008;52.210;21.112;2024-02-16T02:54:46;4.50;99.90
50989;DHT22;37008;52.210;21.112;2024-02-16T02:57:13;4.50;99.90
50989;DHT22;37008;52.210;21.112;2024-02-16T02:59:38;4.40;99.90
50989;DHT22;37008;52.210;21.112;2024-02-16T03:02:04;4.40;99.90
50989;DHT22;37008;52.210;21.112;2024-02-16T03:04:30;4.30;99.90
50989;DHT22;37008;52.210;21.112;2024-02-16T03:06:55;4.30;99.90
50989;DHT22;37008;52.210;21.112;2024-02-16T03:09:21;4.30;99.90
50989;DHT22;37008;52.210;21.112;2024-02-16T03:11:48;4.20;99.90
50989;DHT22;37008;52.210;21.112;2024-02-16T03:14:15;4.10;99.90
50989;DHT22;37008;52.210;21.112;2024-02-16T03:16:41;4.20;99.90
50989;DHT22;37008;52.210;21.112;2024-02-16T03:19:07;4.20;99.90
50989;DHT22;37008;52.210;21.112;2024-02-16T03:21:35;4.20;99.90
50989;DHT22;37008;52.210;21.112;2024-02-16T03:24:04;4.20;99.90
50989;DHT22;37008;52.210;21.112;2024-02-16T03:26:30;4.20;99.90
50989;DHT22;37008;52.210;21.112;2024-02-16T03:28:58;4.10;99.90
50989;DHT22;37008;52.210;21.112;2024-02-16T03:31:24;4.10;99.90
50989;DHT22;37008;52.210;21.112;2024-02-16T03:33:51;4.10;99.90
50989;DHT22;37008;52.210;21.112;2024-02-16T03:36:17;4.10;99.90
50989;DHT22;37008;52.210;21.112;2024-02-16T03:38:45;4.10;99.90
50989;DHT22;37008;52.210;21.112;2024-02-16T03:41:14;4.00;99.90
50989;DHT22;37008;52.210;21.112;2024-02-16T03:43:41;4.00;99.90
50989;DHT22;37008;52.210;21.112;2024-02-16T03:46:06;4.00;99.90
50989;DHT22;37008;52.210;21.112;2024-02-16T03:48:32;3.90;99.90
50989;DHT22;37008;52.210;21.112;2024-02-16T03:50:57;3.90;99.90
50989;DHT22;37008;52.210;21.112;2024-02-16T03:53:23;3.90;99.90
50989;DHT22;37008;52.210;21.112;2024-02-16T03:55:49;3.90;99.90
50989;DHT22;37008;52.210;21.112;2024-02-16T03:58:15;3.90;99.90
50989;DHT22;37008;52.210;21.112;2024-02-16T04:00:41;3.80;99.90
50989;DHT22;37008;52.210;21.112;2024-02-16T04:03:07;3.80;99.90
50989;DHT22;37008;52.210;21.112;2024-02-16T04:05:33;3.80;99.90
50989;DHT22;37008;52.210;21.112;2024-02-16T04:08:00;3.70;99.90
50989;DHT22;37008;52.210;21.112;2024-02-16T04:10:28;3.70;99.90
50989;DHT22;37008;52.210;21.112;2024-02-16T04:12:56;3.70;99.90
50989;DHT22;37008;52.210;21.112;2024-02-16T04:15:22;3.60;99.90
50989;DHT22;37008;52.210;21.112;2024-02-16T04:17:48;3.60;99.90
50989;DHT22;37008;52.210;21.112;2024-02-16T04:20:15;3.60;99.90
50989;DHT22;37008;52.210;21.112;2024-02-16T04:22:41;3.60;99.90
50989;DHT22;37008;52.210;21.112;2024-02-16T04:25:07;3.60;99.90
50989;DHT22;37008;52.210;21.112;2024-02-16T04:27:34;3.60;99.90
50989;DHT22;37008;52.210;21.112;2024-02-16T04:30:00;3.60;99.90
50989;DHT22;37008;52.210;21.112;2024-02-16T04:32:26;3.60;99.90
50989;DHT22;37008;52.210;21.112;2024-02-16T04:34:52;3.60;99.90
50989;DHT22;37008;52.210;21.112;2024-02-16T04:37:18;3.60;99.90
50989;DHT22;37008;52.210;21.112;2024-02-16T04:39:44;3.50;99.90
50989;DHT22;37008;52.210;21.112;2024-02-16T04:42:10;3.50;99.90
50989;DHT22;37008;52.210;21.112;2024-02-16T04:44:37;3.50;99.90
50989;DHT22;37008;52.210;21.112;2024-02-16T04:47:06;3.50;99.90
50989;DHT22;37008;52.210;21.112;2024-02-16T04:49:32;3.40;99.90
50989;DHT22;37008;52.210;21.112;2024-02-16T04:51:57;3.40;99.90
50989;DHT22;37008;52.210;21.112;2024-02-16T04:54:23;3.40;99.90
50989;DHT22;37008;52.210;21.112;2024-02-16T04:56:50;3.30;99.90
50989;DHT22;37008;52.210;21.112;2024-02-16T04:59:17;3.30;99.90
50989;DHT22;37008;52.210;21.112;2024-02-16T05:01:46;3.30;99.90
50989;DHT22;37008;52.210;21.112;2024-02-16T05:04:12;3.20;99.90
50989;DHT22;37008;52.210;21.112;2024-02-16T05:06:39;3.20;99.90
50989;DHT22;37008;52.210;21.112;2024-02-16T05:09:05;3.10;99.90
50989;DHT22;37008;52.210;21.112;2024-02-16T05:11:35;3.10;99.90
50989;DHT22;37008;52.210;21.112;2024-02-16T05:14:00;3.10;99.90
50989;DHT22;37008;52.210;21.112;2024-02-16T05:16:27;3.10;99.90
50989;DHT22;37008;52.210;21.112;2024-02-16T05:18:53;3.10;99.90
50989;DHT22;37008;52.210;21.112;2024-02-16T05:21:22;3.00;99.90
50989;DHT22;37008;52.210;21.112;2024-02-16T05:23:47;3.00;99.90
50989;DHT22;37008;52.210;21.112;2024-02-16T05:26:13;3.00;99.90
50989;DHT22;37008;52.210;21.112;2024-02-16T05:28:39;3.00;99.90
50989;DHT22;37008;52.210;21.112;2024-02-16T05:31:15;2.90;99.90
50989;DHT22;37008;52.210;21.112;2024-02-16T05:33:43;2.90;99.90
50989;DHT22;37008;52.210;21.112;2024-02-16T05:36:10;2.90;99.90
50989;DHT22;37008;52.210;21.112;2024-02-16T05:38:36;2.90;99.90
50989;DHT22;37008;52.210;21.112;2024-02-16T05:41:07;2.90;99.90
50989;DHT22;37008;52.210;21.112;2024-02-16T05:43:33;2.80;99.90
50989;DHT22;37008;52.210;21.112;2024-02-16T05:45:59;2.80;99.90
50989;DHT22;37008;52.210;21.112;2024-02-16T05:48:25;2.80;99.90
50989;DHT22;37008;52.210;21.112;2024-02-16T05:50:53;2.80;99.90
50989;DHT22;37008;52.210;21.112;2024-02-16T05:53:21;2.70;99.90
50989;DHT22;37008;52.210;21.112;2024-02-16T05:55:47;2.70;99.90
50989;DHT22;37008;52.210;21.112;2024-02-16T05:58:13;2.70;99.90
50989;DHT22;37008;52.210;21.112;2024-02-16T06:00:38;2.70;99.90
50989;DHT22;37008;52.210;21.112;2024-02-16T06:03:04;2.70;99.90
50989;DHT22;37008;52.210;21.112;2024-02-16T06:05:30;2.70;99.90
50989;DHT22;37008;52.210;21.112;2024-02-16T06:07:55;2.70;99.90
50989;DHT22;37008;52.210;21.112;2024-02-16T06:10:22;2.80;99.90
50989;DHT22;37008;52.210;21.112;2024-02-16T06:12:48;2.80;99.90
50989;DHT22;37008;52.210;21.112;2024-02-16T06:15:14;2.80;99.90
50989;DHT22;37008;52.210;21.112;2024-02-16T06:17:40;2.90;99.90
50989;DHT22;37008;52.210;21.112;2024-02-16T06:20:06;2.90;99.90
50989;DHT22;37008;52.210;21.112;2024-02-16T06:22:36;2.90;99.90
50989;DHT22;37008;52.210;21.112;2024-02-16T06:25:02;2.90;99.90
50989;DHT22;37008;52.210;21.112;2024-02-16T06:27:27;3.00;99.90
50989;DHT22;37008;52.210;21.112;2024-02-16T06:29:53;3.00;99.90
50989;DHT22;37008;52.210;21.112;2024-02-16T06:32:19;3.10;99.90
50989;DHT22;37008;52.210;21.112;2024-02-16T06:34:45;3.00;99.90
50989;DHT22;37008;52.210;21.112;2024-02-16T06:37:11;3.20;99.90
50989;DHT22;37008;52.210;21.112;2024-02-16T06:39:37;3.20;99.90
50989;DHT22;37008;52.210;21.112;2024-02-16T06:42:02;3.30;99.90
50989;DHT22;37008;52.210;21.112;2024-02-16T06:44:29;3.40;99.90
50989;DHT22;37008;52.210;21.112;2024-02-16T06:46:54;3.40;99.90
50989;DHT22;37008;52.210;21.112;2024-02-16T06:49:20;3.50;99.90
50989;DHT22;37008;52.210;21.112;2024-02-16T06:51:46;3.60;99.90
50989;DHT22;37008;52.210;21.112;2024-02-16T06:54:11;3.60;99.90
50989;DHT22;37008;52.210;21.112;2024-02-16T06:56:38;3.70;99.90
50989;DHT22;37008;52.210;21.112;2024-02-16T06:59:03;3.80;99.90
50989;DHT22;37008;52.210;21.112;2024-02-16T07:01:29;3.80;99.90
50989;DHT22;37008;52.210;21.112;2024-02-16T07:03:55;3.90;99.90
50989;DHT22;37008;52.210;21.112;2024-02-16T07:06:20;4.00;99.90
50989;DHT22;37008;52.210;21.112;2024-02-16T07:08:46;4.00;99.90
50989;DHT22;37008;52.210;21.112;2024-02-16T07:11:12;4.10;99.90
50989;DHT22;37008;52.210;21.112;2024-02-16T07:13:39;4.10;99.90
50989;DHT22;37008;52.210;21.112;2024-02-16T07:16:05;4.20;99.90
50989;DHT22;37008;52.210;21.112;2024-02-16T07:18:34;4.30;99.90
50989;DHT22;37008;52.210;21.112;2024-02-16T07:21:01;4.40;99.90
50989;DHT22;37008;52.210;21.112;2024-02-16T07:23:26;4.40;99.90
50989;DHT22;37008;52.210;21.112;2024-02-16T07:25:52;4.40;99.90
50989;DHT22;37008;52.210;21.112;2024-02-16T07:28:25;4.50;99.90
50989;DHT22;37008;52.210;21.112;2024-02-16T07:30:51;4.50;99.90
50989;DHT22;37008;52.210;21.112;2024-02-16T07:33:18;4.60;99.90
50989;DHT22;37008;52.210;21.112;2024-02-16T07:35:44;4.70;99.90
50989;DHT22;37008;52.210;21.112;2024-02-16T07:38:10;4.70;99.90
50989;DHT22;37008;52.210;21.112;2024-02-16T07:40:36;4.70;99.90
50989;DHT22;37008;52.210;21.112;2024-02-16T07:43:02;4.80;99.90
50989;DHT22;37008;52.210;21.112;2024-02-16T07:45:29;4.80;99.90
50989;DHT22;37008;52.210;21.112;2024-02-16T07:47:55;4.90;99.90
50989;DHT22;37008;52.210;21.112;2024-02-16T07:50:21;4.90;99.90
50989;DHT22;37008;52.210;21.112;2024-02-16T07:52:48;4.90;99.90
50989;DHT22;37008;52.210;21.112;2024-02-16T07:55:14;5.00;99.90
50989;DHT22;37008;52.210;21.112;2024-02-16T07:57:40;5.00;99.90
50989;DHT22;37008;52.210;21.112;2024-02-16T08:00:06;5.10;99.90
50989;DHT22;37008;52.210;21.112;2024-02-16T08:02:32;5.10;99.90
50989;DHT22;37008;52.210;21.112;2024-02-16T08:04:58;5.20;99.90
50989;DHT22;37008;52.210;21.112;2024-02-16T08:07:24;5.20;99.90
50989;DHT22;37008;52.210;21.112;2024-02-16T08:09:50;5.30;99.90
50989;DHT22;37008;52.210;21.112;2024-02-16T08:12:16;5.30;99.90
50989;DHT22;37008;52.210;21.112;2024-02-16T08:14:42;5.30;99.90
50989;DHT22;37008;52.210;21.112;2024-02-16T08:17:09;5.40;99.90
50989;DHT22;37008;52.210;21.112;2024-02-16T08:19:36;5.50;99.90
50989;DHT22;37008;52.210;21.112;2024-02-16T08:22:06;5.60;99.90
50989;DHT22;37008;52.210;21.112;2024-02-16T08:24:33;5.60;99.90
50989;DHT22;37008;52.210;21.112;2024-02-16T08:26:59;5.70;99.90
50989;DHT22;37008;52.210;21.112;2024-02-16T08:29:25;5.70;99.90
50989;DHT22;37008;52.210;21.112;2024-02-16T08:31:54;5.80;99.90
50989;DHT22;37008;52.210;21.112;2024-02-16T08:34:20;5.80;99.90
50989;DHT22;37008;52.210;21.112;2024-02-16T08:36:49;5.90;99.90
50989;DHT22;37008;52.210;21.112;2024-02-16T08:39:16;5.90;99.90
50989;DHT22;37008;52.210;21.112;2024-02-16T08:41:42;6.00;99.90
50989;DHT22;37008;52.210;21.112;2024-02-16T08:44:10;6.10;99.90
50989;DHT22;37008;52.210;21.112;2024-02-16T08:46:39;6.10;99.90
50989;DHT22;37008;52.210;21.112;2024-02-16T08:49:05;6.20;99.90
50989;DHT22;37008;52.210;21.112;2024-02-16T08:51:32;6.20;99.90
50989;DHT22;37008;52.210;21.112;2024-02-16T08:54:01;6.30;99.90
50989;DHT22;37008;52.210;21.112;2024-02-16T08:56:28;6.40;99.90
50989;DHT22;37008;52.210;21.112;2024-02-16T08:58:54;6.50;99.90
50989;DHT22;37008;52.210;21.112;2024-02-16T09:01:33;6.50;99.90
50989;DHT22;37008;52.210;21.112;2024-02-16T09:03:59;6.60;99.90
50989;DHT22;37008;52.210;21.112;2024-02-16T09:06:25;6.70;99.90
50989;DHT22;37008;52.210;21.112;2024-02-16T09:08:51;6.80;99.90
50989;DHT22;37008;52.210;21.112;2024-02-16T09:11:17;6.80;99.90
50989;DHT22;37008;52.210;21.112;2024-02-16T09:13:43;6.90;99.90
50989;DHT22;37008;52.210;21.112;2024-02-16T09:16:09;6.90;99.90
50989;DHT22;37008;52.210;21.112;2024-02-16T09:18:35;7.00;99.90
50989;DHT22;37008;52.210;21.112;2024-02-16T09:21:02;7.10;99.90
50989;DHT22;37008;52.210;21.112;2024-02-16T09:23:28;7.20;99.90
50989;DHT22;37008;52.210;21.112;2024-02-16T09:25:54;7.30;99.90
50989;DHT22;37008;52.210;21.112;2024-02-16T09:28:20;7.40;99.90
50989;DHT22;37008;52.210;21.112;2024-02-16T09:30:47;7.40;99.90
50989;DHT22;37008;52.210;21.112;2024-02-16T09:33:13;7.50;99.90
50989;DHT22;37008;52.210;21.112;2024-02-16T09:35:39;7.60;99.90
50989;DHT22;37008;52.210;21.112;2024-02-16T09:38:06;7.60;99.90
50989;DHT22;37008;52.210;21.112;2024-02-16T09:40:32;7.70;99.90
50989;DHT22;37008;52.210;21.112;2024-02-16T09:42:57;7.80;99.90
50989;DHT22;37008;52.210;21.112;2024-02-16T09:45:23;7.90;99.90
50989;DHT22;37008;52.210;21.112;2024-02-16T09:47:54;7.90;99.90
50989;DHT22;37008;52.210;21.112;2024-02-16T09:50:20;8.00;99.90
50989;DHT22;37008;52.210;21.112;2024-02-16T09:52:48;8.00;99.90
50989;DHT22;37008;52.210;21.112;2024-02-16T09:55:15;8.10;99.90
50989;DHT22;37008;52.210;21.112;2024-02-16T09:57:41;8.10;99.90
50989;DHT22;37008;52.210;21.112;2024-02-16T10:00:09;8.20;99.90
50989;DHT22;37008;52.210;21.112;2024-02-16T10:02:46;8.20;99.90
50989;DHT22;37008;52.210;21.112;2024-02-16T10:07:38;8.40;99.90
50989;DHT22;37008;52.210;21.112;2024-02-16T10:10:05;8.40;99.90
50989;DHT22;37008;52.210;21.112;2024-02-16T10:12:31;8.60;99.90
50989;DHT22;37008;52.210;21.112;2024-02-16T10:14:57;8.60;99.90
50989;DHT22;37008;52.210;21.112;2024-02-16T10:17:25;8.70;99.90
50989;DHT22;37008;52.210;21.112;2024-02-16T10:19:58;8.80;99.90
50989;DHT22;37008;52.210;21.112;2024-02-16T10:22:24;8.80;99.90
50989;DHT22;37008;52.210;21.112;2024-02-16T10:24:50;8.90;99.90
50989;DHT22;37008;52.210;21.112;2024-02-16T10:27:18;9.00;99.90
50989;DHT22;37008;52.210;21.112;2024-02-16T10:29:47;9.00;99.40
50989;DHT22;37008;52.210;21.112;2024-02-16T10:32:15;9.10;98.60
50989;DHT22;37008;52.210;21.112;2024-02-16T10:34:41;9.20;98.30
50989;DHT22;37008;52.210;21.112;2024-02-16T10:37:08;9.20;97.70
50989;DHT22;37008;52.210;21.112;2024-02-16T10:39:35;9.30;97.10
50989;DHT22;37008;52.210;21.112;2024-02-16T10:42:02;9.40;96.60
50989;DHT22;37008;52.210;21.112;2024-02-16T10:44:28;9.40;96.20
50989;DHT22;37008;52.210;21.112;2024-02-16T10:46:55;9.50;95.80
50989;DHT22;37008;52.210;21.112;2024-02-16T10:49:23;9.60;95.70
50989;DHT22;37008;52.210;21.112;2024-02-16T10:51:52;9.70;95.40
50989;DHT22;37008;52.210;21.112;2024-02-16T10:54:23;9.70;94.90
50989;DHT22;37008;52.210;21.112;2024-02-16T10:56:53;9.80;94.50
50989;DHT22;37008;52.210;21.112;2024-02-16T10:59:19;9.80;94.30
50989;DHT22;37008;52.210;21.112;2024-02-16T11:01:45;9.90;93.90
50989;DHT22;37008;52.210;21.112;2024-02-16T11:04:15;9.90;93.80
50989;DHT22;37008;52.210;21.112;2024-02-16T11:09:27;10.00;93.40
50989;DHT22;37008;52.210;21.112;2024-02-16T11:11:55;10.10;93.40
50989;DHT22;37008;52.210;21.112;2024-02-16T11:14:24;10.10;93.30
50989;DHT22;37008;52.210;21.112;2024-02-16T11:16:53;10.20;93.30
50989;DHT22;37008;52.210;21.112;2024-02-16T11:19:21;10.30;93.40
50989;DHT22;37008;52.210;21.112;2024-02-16T11:22:03;10.30;93.40
50989;DHT22;37008;52.210;21.112;2024-02-16T11:24:33;10.40;93.50
50989;DHT22;37008;52.210;21.112;2024-02-16T11:27:02;10.40;93.30
50989;DHT22;37008;52.210;21.112;2024-02-16T11:29:33;10.40;93.30
50989;DHT22;37008;52.210;21.112;2024-02-16T11:32:03;10.50;93.30
50989;DHT22;37008;52.210;21.112;2024-02-16T11:34:29;10.50;93.80
50989;DHT22;37008;52.210;21.112;2024-02-16T11:36:56;10.50;93.50
50989;DHT22;37008;52.210;21.112;2024-02-16T11:39:23;10.50;93.70
50989;DHT22;37008;52.210;21.112;2024-02-16T11:42:01;10.60;93.60
50989;DHT22;37008;52.210;21.112;2024-02-16T11:44:31;10.70;93.40
50989;DHT22;37008;52.210;21.112;2024-02-16T11:46:58;10.70;93.40
50989;DHT22;37008;52.210;21.112;2024-02-16T11:49:24;10.80;93.30
50989;DHT22;37008;52.210;21.112;2024-02-16T11:51:50;10.80;93.40
50989;DHT22;37008;52.210;21.112;2024-02-16T11:54:16;10.80;93.40
50989;DHT22;37008;52.210;21.112;2024-02-16T11:56:46;10.90;93.40
50989;DHT22;37008;52.210;21.112;2024-02-16T11:59:15;10.90;93.50
50989;DHT22;37008;52.210;21.112;2024-02-16T12:01:58;11.00;93.60
50989;DHT22;37008;52.210;21.112;2024-02-16T12:04:25;11.00;93.40
50989;DHT22;37008;52.210;21.112;2024-02-16T12:06:52;11.00;93.30
50989;DHT22;37008;52.210;21.112;2024-02-16T12:09:19;11.00;93.30
50989;DHT22;37008;52.210;21.112;2024-02-16T12:11:47;11.10;93.30
50989;DHT22;37008;52.210;21.112;2024-02-16T12:14:13;11.10;93.00
50989;DHT22;37008;52.210;21.112;2024-02-16T12:16:39;11.10;93.00
50989;DHT22;37008;52.210;21.112;2024-02-16T12:19:05;11.10;93.10
50989;DHT22;37008;52.210;21.112;2024-02-16T12:21:31;11.20;92.90
50989;DHT22;37008;52.210;21.112;2024-02-16T12:23:56;11.20;92.70
50989;DHT22;37008;52.210;21.112;2024-02-16T12:26:22;11.20;92.50
50989;DHT22;37008;52.210;21.112;2024-02-16T12:28:48;11.20;92.30
50989;DHT22;37008;52.210;21.112;2024-02-16T12:31:24;11.20;92.50
50989;DHT22;37008;52.210;21.112;2024-02-16T12:33:51;11.20;92.50
50989;DHT22;37008;52.210;21.112;2024-02-16T12:36:16;11.20;92.40
50989;DHT22;37008;52.210;21.112;2024-02-16T12:38:42;11.30;92.30
50989;DHT22;37008;52.210;21.112;2024-02-16T12:41:08;11.30;92.00
50989;DHT22;37008;52.210;21.112;2024-02-16T12:43:34;11.40;91.70
50989;DHT22;37008;52.210;21.112;2024-02-16T12:46:00;11.40;91.50
50989;DHT22;37008;52.210;21.112;2024-02-16T12:48:28;11.40;91.20
50989;DHT22;37008;52.210;21.112;2024-02-16T12:50:54;11.40;91.10
50989;DHT22;37008;52.210;21.112;2024-02-16T12:53:20;11.50;91.30
50989;DHT22;37008;52.210;21.112;2024-02-16T12:55:46;11.50;91.30
50989;DHT22;37008;52.210;21.112;2024-02-16T12:58:13;11.50;91.40
50989;DHT22;37008;52.210;21.112;2024-02-16T13:00:39;11.50;91.60
50989;DHT22;37008;52.210;21.112;2024-02-16T13:03:04;11.50;91.40
50989;DHT22;37008;52.210;21.112;2024-02-16T13:05:30;11.50;91.10
50989;DHT22;37008;52.210;21.112;2024-02-16T13:07:58;11.50;91.10
50989;DHT22;37008;52.210;21.112;2024-02-16T13:10:24;11.50;91.00
50989;DHT22;37008;52.210;21.112;2024-02-16T13:12:49;11.50;90.90
50989;DHT22;37008;52.210;21.112;2024-02-16T13:15:15;11.50;90.90
50989;DHT22;37008;52.210;21.112;2024-02-16T13:17:41;11.50;91.10
50989;DHT22;37008;52.210;21.112;2024-02-16T13:20:07;11.50;91.00
50989;DHT22;37008;52.210;21.112;2024-02-16T13:22:38;11.50;91.10
50989;DHT22;37008;52.210;21.112;2024-02-16T13:25:04;11.40;91.20
50989;DHT22;37008;52.210;21.112;2024-02-16T13:27:33;11.40;91.30
50989;DHT22;37008;52.210;21.112;2024-02-16T13:30:03;11.40;91.30
50989;DHT22;37008;52.210;21.112;2024-02-16T13:32:32;11.40;91.40
50989;DHT22;37008;52.210;21.112;2024-02-16T13:34:58;11.40;91.40
50989;DHT22;37008;52.210;21.112;2024-02-16T13:37:24;11.30;91.40
50989;DHT22;37008;52.210;21.112;2024-02-16T13:39:50;11.40;91.30
50989;DHT22;37008;52.210;21.112;2024-02-16T13:42:16;11.40;91.40
50989;DHT22;37008;52.210;21.112;2024-02-16T13:44:42;11.40;91.30
50989;DHT22;37008;52.210;21.112;2024-02-16T13:47:08;11.40;91.20
50989;DHT22;37008;52.210;21.112;2024-02-16T13:49:34;11.40;91.00
50989;DHT22;37008;52.210;21.112;2024-02-16T13:52:00;11.40;90.80
50989;DHT22;37008;52.210;21.112;2024-02-16T13:54:26;11.50;90.90
50989;DHT22;37008;52.210;21.112;2024-02-16T13:56:51;11.50;90.90
50989;DHT22;37008;52.210;21.112;2024-02-16T13:59:18;11.50;90.80
50989;DHT22;37008;52.210;21.112;2024-02-16T14:01:44;11.50;90.50
50989;DHT22;37008;52.210;21.112;2024-02-16T14:04:10;11.50;90.50
50989;DHT22;37008;52.210;21.112;2024-02-16T14:06:35;11.50;90.30
50989;DHT22;37008;52.210;21.112;2024-02-16T14:09:02;11.50;90.20
50989;DHT22;37008;52.210;21.112;2024-02-16T14:11:35;11.50;90.10
50989;DHT22;37008;52.210;21.112;2024-02-16T14:14:01;11.50;89.60
50989;DHT22;37008;52.210;21.112;2024-02-16T14:16:27;11.40;89.60
50989;DHT22;37008;52.210;21.112;2024-02-16T14:18:52;11.40;89.60
50989;DHT22;37008;52.210;21.112;2024-02-16T14:21:18;11.40;89.60
50989;DHT22;37008;52.210;21.112;2024-02-16T14:23:44;11.30;89.30
50989;DHT22;37008;52.210;21.112;2024-02-16T14:26:09;11.30;89.40
50989;DHT22;37008;52.210;21.112;2024-02-16T14:28:35;11.20;90.10
50989;DHT22;37008;52.210;21.112;2024-02-16T14:31:01;11.20;89.30
50989;DHT22;37008;52.210;21.112;2024-02-16T14:33:28;11.20;89.30
50989;DHT22;37008;52.210;21.112;2024-02-16T14:35:53;11.20;89.20
50989;DHT22;37008;52.210;21.112;2024-02-16T14:38:19;11.20;89.30
50989;DHT22;37008;52.210;21.112;2024-02-16T14:40:45;11.10;89.10
50989;DHT22;37008;52.210;21.112;2024-02-16T14:43:11;11.10;89.00
50989;DHT22;37008;52.210;21.112;2024-02-16T14:45:37;11.00;88.50
50989;DHT22;37008;52.210;21.112;2024-02-16T14:48:04;11.00;88.60
50989;DHT22;37008;52.210;21.112;2024-02-16T14:50:30;11.00;88.70
50989;DHT22;37008;52.210;21.112;2024-02-16T14:52:56;10.90;88.90
50989;DHT22;37008;52.210;21.112;2024-02-16T14:55:22;10.80;88.90
50989;DHT22;37008;52.210;21.112;2024-02-16T14:57:48;10.80;89.00
50989;DHT22;37008;52.210;21.112;2024-02-16T15:00:14;10.70;89.20
50989;DHT22;37008;52.210;21.112;2024-02-16T15:02:40;10.70;89.50
50989;DHT22;37008;52.210;21.112;2024-02-16T15:05:09;10.70;89.70
50989;DHT22;37008;52.210;21.112;2024-02-16T15:07:35;10.60;89.80
50989;DHT22;37008;52.210;21.112;2024-02-16T15:10:01;10.50;90.00
50989;DHT22;37008;52.210;21.112;2024-02-16T15:12:28;10.40;90.20
50989;DHT22;37008;52.210;21.112;2024-02-16T15:14:54;10.40;90.40
50989;DHT22;37008;52.210;21.112;2024-02-16T15:17:20;10.30;90.60
50989;DHT22;37008;52.210;21.112;2024-02-16T15:19:47;10.20;90.80
50989;DHT22;37008;52.210;21.112;2024-02-16T15:22:13;10.20;91.20
50989;DHT22;37008;52.210;21.112;2024-02-16T15:24:39;10.10;91.50
50989;DHT22;37008;52.210;21.112;2024-02-16T15:27:04;10.00;91.80
50989;DHT22;37008;52.210;21.112;2024-02-16T15:29:31;9.90;92.00